createdAt,value
2019-03-10T00:01:29.191Z,35.14
2019-03-10T00:03:57.645Z,34.90
2019-03-10T00:06:26.086Z,35.28
2019-03-10T00:08:54.483Z,35.11
2019-03-10T00:11:22.874Z,35.17
2019-03-10T00:13:51.258Z,35.22
2019-03-10T00:16:19.657Z,35.01
2019-03-10T00:18:49.240Z,34.92
2019-03-10T00:21:17.624Z,34.94
2019-03-10T00:23:46.397Z,34.86
2019-03-10T00:26:14.785Z,34.92
2019-03-10T00:28:43.177Z,34.64
2019-03-10T00:31:11.569Z,34.93
2019-03-10T00:33:40.028Z,34.85
2019-03-10T00:36:08.411Z,34.53
2019-03-10T00:38:40.162Z,34.72
2019-03-10T00:41:23.396Z,34.64
2019-03-10T00:44:14.819Z,34.12
2019-03-10T00:46:58.354Z,34.57
2019-03-10T00:49:49.246Z,34.42
2019-03-10T00:52:23.467Z,34.31
2019-03-10T00:54:51.855Z,34.33
2019-03-10T00:57:20.291Z,34.19
2019-03-10T00:59:48.681Z,34.06
2019-03-10T01:02:17.074Z,34.37
2019-03-10T01:04:45.503Z,34.36
2019-03-10T01:07:13.894Z,34.09
2019-03-10T01:09:42.290Z,34.31
2019-03-10T01:12:10.680Z,33.26
2019-03-10T01:14:39.067Z,33.33
2019-03-10T01:17:07.460Z,33.63
2019-03-10T01:19:35.851Z,33.23
2019-03-10T01:22:04.247Z,32.95
2019-03-10T01:24:32.630Z,32.86
2019-03-10T01:27:01.022Z,32.94
2019-03-10T01:29:29.420Z,32.95
2019-03-10T01:32:03.680Z,33.15
2019-03-10T01:34:59.785Z,33.01
2019-03-10T01:37:28.177Z,33.36
2019-03-10T01:39:56.593Z,32.86
2019-03-10T01:42:24.987Z,33.27
2019-03-10T01:44:53.393Z,33.06
2019-03-10T01:47:21.785Z,33.03
2019-03-10T01:49:50.212Z,33.24
2019-03-10T01:52:18.587Z,33.30
2019-03-10T01:54:46.994Z,33.32
2019-03-10T01:57:15.380Z,33.55
2019-03-10T01:59:43.793Z,33.03
2019-03-10T02:02:12.244Z,33.15
2019-03-10T02:04:41.880Z,33.27
2019-03-10T02:07:10.278Z,33.57
2019-03-10T02:09:38.704Z,32.99
2019-03-10T02:12:07.168Z,32.96
2019-03-10T02:14:35.579Z,33.22
2019-03-10T02:17:04.137Z,32.89
2019-03-10T02:19:32.633Z,33.59
2019-03-10T02:22:01.088Z,32.94
2019-03-10T02:24:29.500Z,33.05
2019-03-10T02:26:57.898Z,33.65
2019-03-10T02:29:26.318Z,33.05
2019-03-10T02:31:54.697Z,33.25
2019-03-10T02:34:23.122Z,32.64
2019-03-10T02:36:51.516Z,33.54
2019-03-10T02:39:19.944Z,33.47
2019-03-10T02:41:48.330Z,33.07
2019-03-10T02:44:16.772Z,32.95
2019-03-10T02:46:45.154Z,32.52
2019-03-10T02:49:13.579Z,32.93
2019-03-10T02:51:42.066Z,33.04
2019-03-10T02:54:10.452Z,32.90
2019-03-10T02:56:38.838Z,32.42
2019-03-10T02:59:07.232Z,31.83
2019-03-10T03:01:35.633Z,32.99
2019-03-10T03:04:04.045Z,32.38
2019-03-10T03:06:32.434Z,32.17
2019-03-10T03:09:00.827Z,32.59
2019-03-10T03:11:29.267Z,32.35
2019-03-10T03:13:57.704Z,32.70
2019-03-10T03:16:26.164Z,32.62
2019-03-10T03:18:54.551Z,31.87
2019-03-10T03:21:23.025Z,32.35
2019-03-10T03:23:51.416Z,32.25
2019-03-10T03:26:19.789Z,32.34
2019-03-10T03:28:48.179Z,32.75
2019-03-10T03:31:16.597Z,32.27
2019-03-10T03:33:45.041Z,31.84
2019-03-10T03:36:16.692Z,31.62
2019-03-10T03:38:48.585Z,31.64
2019-03-10T03:41:24.830Z,32.52
2019-03-10T03:43:53.208Z,32.62
2019-03-10T03:46:21.603Z,32.63
2019-03-10T03:48:50.178Z,32.38
2019-03-10T03:51:18.602Z,32.81
2019-03-10T03:53:46.989Z,32.43
2019-03-10T03:56:15.378Z,32.32
2019-03-10T03:58:43.764Z,32.58
2019-03-10T04:01:16.806Z,32.37
2019-03-10T04:03:45.200Z,32.57
2019-03-10T04:06:13.586Z,32.50
2019-03-10T04:08:42.061Z,32.60
2019-03-10T04:11:10.455Z,32.36
2019-03-10T04:13:38.849Z,32.87
2019-03-10T04:16:07.345Z,32.55
2019-03-10T04:18:35.729Z,32.58
2019-03-10T04:21:04.249Z,31.92
2019-03-10T04:23:32.615Z,32.54
2019-03-10T04:26:01.029Z,32.89
2019-03-10T04:28:29.419Z,32.66
2019-03-10T04:30:57.823Z,32.66
2019-03-10T04:33:26.215Z,32.63
2019-03-10T04:35:54.640Z,32.63
2019-03-10T04:38:23.030Z,32.20
2019-03-10T04:40:51.445Z,32.85
2019-03-10T04:43:19.842Z,32.87
2019-03-10T04:45:48.277Z,32.60
2019-03-10T04:48:16.654Z,32.72
2019-03-10T04:50:45.080Z,32.93
2019-03-10T04:53:13.503Z,32.71
2019-03-10T04:55:49.366Z,32.37
2019-03-10T04:58:18.616Z,32.39
2019-03-10T05:00:48.687Z,32.55
2019-03-10T05:03:17.081Z,32.91
2019-03-10T05:05:45.506Z,32.75
2019-03-10T05:08:13.900Z,32.30
2019-03-10T05:10:42.320Z,32.35
2019-03-10T05:13:10.711Z,32.85
2019-03-10T05:15:39.143Z,32.17
2019-03-10T05:18:07.539Z,31.91
2019-03-10T05:20:35.965Z,32.41
2019-03-10T05:23:29.818Z,32.58
2019-03-10T05:25:58.470Z,32.62
2019-03-10T05:28:27.606Z,32.39
2019-03-10T05:30:55.997Z,32.59
2019-03-10T05:33:24.393Z,32.30
2019-03-10T05:35:52.788Z,32.63
2019-03-10T05:38:21.167Z,32.66
2019-03-10T05:40:49.579Z,32.34
2019-03-10T05:43:17.966Z,32.51
2019-03-10T05:45:46.410Z,32.19
2019-03-10T05:48:14.797Z,32.31
2019-03-10T05:50:43.230Z,32.52
2019-03-10T05:53:11.642Z,32.78
2019-03-10T05:55:40.068Z,32.27
2019-03-10T05:58:08.493Z,32.34
2019-03-10T06:00:42.533Z,32.44
2019-03-10T06:03:07.098Z,32.21
2019-03-10T06:05:35.527Z,32.40
2019-03-10T06:08:03.912Z,32.46
2019-03-10T06:10:32.359Z,32.70
2019-03-10T06:13:00.751Z,32.20
2019-03-10T06:15:29.243Z,32.74
2019-03-10T06:17:57.630Z,32.75
2019-03-10T06:20:26.021Z,32.14
2019-03-10T06:22:54.409Z,32.24
2019-03-10T06:25:22.801Z,32.10
2019-03-10T06:27:51.197Z,32.75
2019-03-10T06:30:19.583Z,33.27
2019-03-10T06:32:47.970Z,32.99
2019-03-10T06:35:16.357Z,33.19
2019-03-10T06:37:44.796Z,32.94
2019-03-10T06:40:13.147Z,32.65
2019-03-10T06:42:41.541Z,32.71
2019-03-10T06:45:09.928Z,33.08
2019-03-10T06:47:38.309Z,32.58
2019-03-10T06:50:12.100Z,32.90
2019-03-10T06:52:39.756Z,33.06
2019-03-10T06:55:08.279Z,32.89
2019-03-10T06:57:36.798Z,32.97
2019-03-10T07:00:10.873Z,32.97
2019-03-10T07:02:39.285Z,32.75
2019-03-10T07:05:10.370Z,32.77
2019-03-10T07:07:38.832Z,32.57
2019-03-10T07:10:12.006Z,32.68
2019-03-10T07:12:40.412Z,32.70
2019-03-10T07:15:10.648Z,32.48
2019-03-10T07:17:39.082Z,32.60
2019-03-10T07:20:16.399Z,32.57
2019-03-10T07:22:44.826Z,32.54
2019-03-10T07:25:13.220Z,32.38
2019-03-10T07:27:43.268Z,32.28
2019-03-10T07:30:31.469Z,31.91
2019-03-10T07:33:16.492Z,32.43
2019-03-10T07:35:46.533Z,32.15
2019-03-10T07:38:22.312Z,31.89
2019-03-10T07:40:52.342Z,31.40
2019-03-10T07:43:22.381Z,31.98
2019-03-10T07:46:10.518Z,31.84
2019-03-10T07:48:56.879Z,31.83
2019-03-10T07:51:29.658Z,31.95
2019-03-10T07:54:05.728Z,32.38
2019-03-10T07:56:35.833Z,32.15
2019-03-10T07:59:17.721Z,32.47
2019-03-10T08:01:56.747Z,32.52
2019-03-10T08:04:26.815Z,32.59
2019-03-10T08:07:00.195Z,32.63
2019-03-10T08:09:48.318Z,32.59
2019-03-10T08:12:21.318Z,32.66
2019-03-10T08:14:51.452Z,32.58
2019-03-10T08:17:21.490Z,32.56
2019-03-10T08:20:00.393Z,32.50
2019-03-10T08:22:46.658Z,32.33
2019-03-10T08:25:16.759Z,32.22
2019-03-10T08:28:02.211Z,32.09
2019-03-10T08:30:35.394Z,32.02
2019-03-10T08:33:21.544Z,31.93
2019-03-10T08:35:51.579Z,31.82
2019-03-10T08:38:30.738Z,31.83
2019-03-10T08:41:17.000Z,31.71
2019-03-10T08:43:47.041Z,31.69
2019-03-10T08:46:22.581Z,31.65
2019-03-10T08:48:52.622Z,31.51
2019-03-10T08:51:25.388Z,31.50
2019-03-10T08:53:55.423Z,31.36
2019-03-10T08:56:37.209Z,31.16
2019-03-10T08:59:07.246Z,31.15
2019-03-10T09:01:40.267Z,31.09
2019-03-10T09:04:15.819Z,30.98
2019-03-10T09:06:51.608Z,30.91
2019-03-10T09:09:38.001Z,30.88
2019-03-10T09:12:13.651Z,30.81
2019-03-10T09:15:01.880Z,30.76
2019-03-10T09:17:37.904Z,30.60
2019-03-10T09:20:11.489Z,30.54
2019-03-10T09:22:44.245Z,30.40
2019-03-10T09:25:31.023Z,30.29
2019-03-10T09:28:03.761Z,30.12
2019-03-10T09:30:33.805Z,29.99
2019-03-10T09:33:12.992Z,19.39
2019-03-10T09:35:43.062Z,18.59
2019-03-10T09:38:13.108Z,24.51
2019-03-10T09:40:45.624Z,25.12
2019-03-10T09:43:21.391Z,25.08
2019-03-10T09:45:57.171Z,25.37
2019-03-10T09:48:42.376Z,25.62
2019-03-10T09:51:12.457Z,25.85
2019-03-10T09:53:51.241Z,26.07
2019-03-10T09:56:27.015Z,26.21
2019-03-10T09:58:59.509Z,26.27
2019-03-10T10:01:35.125Z,26.39
2019-03-10T10:04:11.234Z,26.46
2019-03-10T10:06:41.279Z,26.47
2019-03-10T10:09:11.320Z,26.57
2019-03-10T10:11:47.204Z,26.68
2019-03-10T10:14:17.248Z,26.82
2019-03-10T10:16:49.991Z,26.90
2019-03-10T10:19:20.023Z,26.99
2019-03-10T10:21:50.065Z,27.11
2019-03-10T10:24:23.130Z,27.15
2019-03-10T10:26:53.173Z,27.14
2019-03-10T10:29:28.762Z,27.15
2019-03-10T10:32:07.799Z,27.17
2019-03-10T10:34:54.300Z,27.24
2019-03-10T10:37:24.336Z,27.26
2019-03-10T10:40:00.236Z,27.22
2019-03-10T10:42:36.498Z,27.18
2019-03-10T10:45:07.713Z,27.08
2019-03-10T10:47:40.431Z,27.12
2019-03-10T10:50:13.750Z,27.01
2019-03-10T10:52:43.808Z,26.83
2019-03-10T10:55:16.863Z,26.75
2019-03-10T10:57:49.383Z,26.71
2019-03-10T11:00:22.376Z,26.63
2019-03-10T11:03:08.728Z,26.51
2019-03-10T11:05:41.250Z,26.47
2019-03-10T11:08:23.305Z,26.31
2019-03-10T11:10:53.336Z,26.28
2019-03-10T11:13:32.157Z,19.49
2019-03-10T11:16:02.189Z,20.13
2019-03-10T11:18:41.424Z,23.69
2019-03-10T11:21:11.464Z,24.69
2019-03-10T11:23:47.906Z,24.21
2019-03-10T11:26:17.936Z,24.48
2019-03-10T11:29:04.280Z,24.81
2019-03-10T11:31:34.412Z,25.13
2019-03-10T11:34:04.636Z,25.36
2019-03-10T11:36:50.982Z,25.65
2019-03-10T11:39:23.692Z,25.93
2019-03-10T11:42:10.159Z,26.18
2019-03-10T11:44:56.119Z,26.42
2019-03-10T11:47:26.157Z,26.55
2019-03-10T11:50:08.583Z,26.66
2019-03-10T11:52:38.613Z,26.81
2019-03-10T11:55:09.863Z,26.94
2019-03-10T11:57:40.694Z,27.01
2019-03-10T12:00:18.553Z,27.03
2019-03-10T12:02:54.458Z,27.04
2019-03-10T12:05:27.366Z,27.10
2019-03-10T12:08:12.612Z,27.14
2019-03-10T12:10:41.044Z,27.20
2019-03-10T12:13:09.437Z,27.20
2019-03-10T12:15:37.853Z,27.13
2019-03-10T12:18:07.541Z,27.07
2019-03-10T12:20:35.950Z,27.02
2019-03-10T12:23:04.631Z,27.01
2019-03-10T12:25:33.076Z,27.08
2019-03-10T12:28:01.471Z,27.15
2019-03-10T12:30:29.958Z,27.25
2019-03-10T12:32:58.385Z,21.75
2019-03-10T12:35:34.470Z,20.39
2019-03-10T12:37:56.935Z,26.18
2019-03-10T12:40:25.361Z,26.57
2019-03-10T12:42:53.749Z,26.57
2019-03-10T12:45:22.224Z,26.17
2019-03-10T12:47:50.615Z,26.28
2019-03-10T12:50:19.069Z,26.34
2019-03-10T12:52:47.525Z,26.38
2019-03-10T12:55:15.946Z,26.39
2019-03-10T12:57:44.343Z,26.43
2019-03-10T13:00:15.450Z,26.48
2019-03-10T13:02:43.849Z,26.62
2019-03-10T13:05:12.325Z,26.75
2019-03-10T13:07:40.757Z,26.91
2019-03-10T13:10:12.604Z,26.93
2019-03-10T13:12:41.145Z,26.97
2019-03-10T13:15:14.147Z,27.09
2019-03-10T13:17:42.539Z,27.19
2019-03-10T13:20:11.965Z,27.27
2019-03-10T13:22:40.439Z,27.43
2019-03-10T13:25:13.076Z,27.54
2019-03-10T13:27:41.528Z,27.60
2019-03-10T13:30:12.163Z,27.74
2019-03-10T13:32:40.542Z,27.88
2019-03-10T13:35:09.083Z,27.87
2019-03-10T13:37:37.475Z,27.88
2019-03-10T13:40:08.462Z,27.92
2019-03-10T13:42:36.896Z,28.11
2019-03-10T13:45:08.653Z,28.11
2019-03-10T13:47:37.044Z,28.22
2019-03-10T13:50:08.933Z,28.33
2019-03-10T13:52:37.351Z,28.30
2019-03-10T13:55:07.259Z,28.47
2019-03-10T13:57:35.663Z,28.34
2019-03-10T14:00:16.281Z,28.50
2019-03-10T14:02:44.682Z,28.67
2019-03-10T14:05:13.093Z,28.63
2019-03-10T14:07:41.469Z,28.69
2019-03-10T14:10:11.107Z,28.84
2019-03-10T14:12:39.511Z,28.85
2019-03-10T14:15:18.050Z,28.99
2019-03-10T14:17:46.446Z,29.18
2019-03-10T14:20:15.781Z,29.33
2019-03-10T14:22:44.189Z,29.29
2019-03-10T14:25:14.116Z,29.43
2019-03-10T14:27:42.551Z,29.42
2019-03-10T14:30:16.168Z,29.32
2019-03-10T14:32:44.626Z,29.86
2019-03-10T14:35:13.033Z,30.07
2019-03-10T14:37:41.464Z,30.05
2019-03-10T14:40:17.575Z,30.13
2019-03-10T14:42:45.993Z,30.08
2019-03-10T14:45:16.221Z,30.22
2019-03-10T14:47:44.609Z,30.20
2019-03-10T14:50:15.480Z,30.22
2019-03-10T14:52:43.869Z,30.26
2019-03-10T14:55:15.521Z,30.30
2019-03-10T14:57:44.088Z,30.31
2019-03-10T15:00:23.624Z,30.33
2019-03-10T15:02:52.091Z,30.31
2019-03-10T15:05:20.494Z,30.31
2019-03-10T15:07:48.901Z,30.41
2019-03-10T15:10:17.292Z,30.45
2019-03-10T15:12:45.687Z,30.48
2019-03-10T15:15:22.360Z,30.51
2019-03-10T15:17:46.728Z,30.55
2019-03-10T15:20:16.047Z,30.60
2019-03-10T15:22:44.446Z,30.58
2019-03-10T15:25:19.566Z,30.68
2019-03-10T15:27:47.971Z,30.69
2019-03-10T15:30:22.152Z,30.78
2019-03-10T15:32:50.545Z,30.81
2019-03-10T15:35:18.937Z,30.88
2019-03-10T15:37:47.315Z,30.91
2019-03-10T15:40:19.363Z,30.99
2019-03-10T15:42:47.748Z,30.97
2019-03-10T15:45:17.201Z,31.04
2019-03-10T15:47:45.692Z,31.09
2019-03-10T15:50:23.466Z,31.15
2019-03-10T15:52:51.896Z,31.17
2019-03-10T15:55:20.331Z,31.17
2019-03-10T15:57:50.407Z,31.25
2019-03-10T16:00:20.737Z,31.29
2019-03-10T16:02:49.208Z,31.32
2019-03-10T16:05:17.680Z,31.36
2019-03-10T16:07:46.136Z,31.40
2019-03-10T16:10:15.170Z,31.42
2019-03-10T16:12:43.596Z,31.40
2019-03-10T16:15:28.624Z,31.46
2019-03-10T16:17:59.700Z,31.46
2019-03-10T16:20:28.211Z,31.50
2019-03-10T16:22:56.588Z,31.53
2019-03-10T16:25:25.040Z,31.55
2019-03-10T16:27:53.461Z,31.54
2019-03-10T16:30:24.051Z,31.57
2019-03-10T16:32:52.479Z,31.51
2019-03-10T16:35:22.303Z,31.58
2019-03-10T16:37:50.953Z,31.60
2019-03-10T16:40:20.286Z,31.60
2019-03-10T16:42:48.744Z,31.64
2019-03-10T16:45:24.624Z,31.68
2019-03-10T16:47:53.016Z,31.67
2019-03-10T16:50:22.737Z,31.71
2019-03-10T16:52:51.130Z,31.71
2019-03-10T16:55:19.522Z,31.71
2019-03-10T16:57:47.911Z,31.74
2019-03-10T17:00:17.341Z,31.76
2019-03-10T17:02:45.741Z,31.76
2019-03-10T17:05:17.428Z,31.83
2019-03-10T17:07:45.852Z,31.87
2019-03-10T17:10:22.803Z,31.89
2019-03-10T17:12:51.246Z,31.91
2019-03-10T17:15:23.436Z,31.95
2019-03-10T17:17:51.957Z,32.00
2019-03-10T17:20:20.507Z,32.00
2019-03-10T17:22:48.928Z,31.96
2019-03-10T17:25:17.776Z,32.03
2019-03-10T17:27:46.285Z,32.03
2019-03-10T17:30:23.946Z,32.08
2019-03-10T17:32:52.471Z,32.08
2019-03-10T17:35:21.411Z,32.14
2019-03-10T17:37:49.846Z,32.15
2019-03-10T17:40:22.598Z,32.23
2019-03-10T17:42:51.091Z,32.20
2019-03-10T17:45:20.327Z,32.20
2019-03-10T17:47:48.774Z,32.15
2019-03-10T17:50:17.990Z,32.24
2019-03-10T17:52:46.662Z,32.28
2019-03-10T17:55:20.143Z,32.30
2019-03-10T17:57:48.642Z,32.35
2019-03-10T18:00:19.624Z,32.34
2019-03-10T18:02:48.042Z,32.37
2019-03-10T18:05:16.499Z,32.37
2019-03-10T18:07:44.926Z,32.35
2019-03-10T18:10:14.968Z,32.39
2019-03-10T18:12:43.403Z,32.38
2019-03-10T18:15:13.346Z,32.34
2019-03-10T18:17:41.885Z,32.46
2019-03-10T18:20:17.680Z,32.38
2019-03-10T18:22:46.480Z,32.45
2019-03-10T18:25:15.848Z,32.40
2019-03-10T18:27:44.241Z,32.44
2019-03-10T18:30:19.879Z,32.47
2019-03-10T18:32:48.286Z,32.47
2019-03-10T18:35:16.754Z,32.46
2019-03-10T18:37:45.224Z,32.52
2019-03-10T18:40:16.250Z,32.54
2019-03-10T18:42:44.744Z,32.52
2019-03-10T18:45:15.548Z,32.49
2019-03-10T18:47:43.757Z,32.55
2019-03-10T18:50:14.602Z,32.47
2019-03-10T18:52:43.022Z,32.51
2019-03-10T18:55:12.946Z,32.44
2019-03-10T18:57:41.401Z,32.49
2019-03-10T19:00:16.308Z,32.48
2019-03-10T19:02:44.755Z,32.53
2019-03-10T19:05:13.157Z,32.53
2019-03-10T19:07:41.546Z,32.54
2019-03-10T19:10:12.106Z,32.56
2019-03-10T19:12:40.518Z,32.53
2019-03-10T19:15:16.742Z,32.56
2019-03-10T19:17:45.125Z,32.63
2019-03-10T19:20:14.758Z,32.65
2019-03-10T19:22:43.318Z,32.60
2019-03-10T19:25:13.350Z,32.61
2019-03-10T19:27:41.840Z,32.72
2019-03-10T19:30:18.451Z,32.68
2019-03-10T19:32:46.901Z,32.71
2019-03-10T19:35:15.316Z,32.66
2019-03-10T19:37:43.709Z,32.72
2019-03-10T19:40:17.061Z,32.59
2019-03-10T19:42:45.540Z,32.69
2019-03-10T19:45:19.791Z,32.68
2019-03-10T19:47:48.252Z,32.70
2019-03-10T19:50:27.096Z,32.73
2019-03-10T19:52:54.778Z,32.73
2019-03-10T19:55:23.256Z,32.71
2019-03-10T19:57:51.650Z,32.65
2019-03-10T20:00:20.923Z,32.75
2019-03-10T20:02:49.337Z,32.62
2019-03-10T20:05:17.786Z,32.76
2019-03-10T20:07:46.254Z,32.77
2019-03-10T20:10:25.538Z,32.74
2019-03-10T20:12:53.937Z,32.73
2019-03-10T20:15:24.620Z,32.69
2019-03-10T20:17:53.095Z,32.69
2019-03-10T20:20:26.848Z,32.71
2019-03-10T20:22:55.091Z,32.65
2019-03-10T20:25:23.492Z,32.66
2019-03-10T20:27:51.897Z,32.66
2019-03-10T20:30:21.542Z,32.67
2019-03-10T20:32:49.982Z,32.60
2019-03-10T20:35:18.412Z,32.65
2019-03-10T20:37:46.874Z,32.69
2019-03-10T20:40:20.000Z,32.36
2019-03-10T20:42:48.439Z,32.63
2019-03-10T20:45:16.927Z,32.58
2019-03-10T20:47:45.344Z,35.26
2019-03-10T20:50:17.731Z,33.04
2019-03-10T20:52:46.198Z,33.24
2019-03-10T20:55:15.236Z,33.26
2019-03-10T20:57:44.074Z,33.24
2019-03-10T21:00:17.143Z,33.50
2019-03-10T21:02:45.554Z,33.45
2019-03-10T21:05:13.957Z,33.14
2019-03-10T21:07:42.371Z,33.22
2019-03-10T21:10:19.648Z,33.29
2019-03-10T21:12:48.046Z,33.27
2019-03-10T21:15:21.494Z,33.27
2019-03-10T21:17:51.536Z,33.18
2019-03-10T21:20:24.015Z,33.19
2019-03-10T21:22:52.422Z,33.02
2019-03-10T21:25:26.033Z,33.10
2019-03-10T21:27:54.441Z,33.10
2019-03-10T21:30:28.227Z,33.12
2019-03-10T21:32:56.615Z,33.11
2019-03-10T21:35:25.031Z,33.08
2019-03-10T21:37:53.424Z,33.11
2019-03-10T21:40:26.613Z,33.12
2019-03-10T21:42:55.047Z,33.11
2019-03-10T21:45:23.478Z,33.07
2019-03-10T21:47:51.887Z,33.16
2019-03-10T21:50:20.628Z,33.16
2019-03-10T21:52:49.024Z,33.18
2019-03-10T21:55:18.147Z,33.20
2019-03-10T21:57:46.556Z,33.14
2019-03-10T22:00:16.495Z,33.20
2019-03-10T22:02:44.884Z,33.22
2019-03-10T22:05:15.311Z,33.26
2019-03-10T22:07:43.835Z,33.23
2019-03-10T22:10:25.757Z,33.18
2019-03-10T22:12:44.187Z,33.16
2019-03-10T22:15:14.122Z,33.27
2019-03-10T22:17:42.594Z,33.28
2019-03-10T22:20:16.347Z,33.29
2019-03-10T22:22:49.204Z,33.34
2019-03-10T22:25:15.044Z,33.33
2019-03-10T22:27:45.728Z,33.28
2019-03-10T22:30:18.661Z,33.33
2019-03-10T22:32:47.047Z,33.31
2019-03-10T22:35:15.462Z,33.33
2019-03-10T22:37:43.843Z,33.22
2019-03-10T22:40:13.988Z,33.35
2019-03-10T22:42:42.373Z,33.39
2019-03-10T22:45:18.564Z,33.49
2019-03-10T22:47:46.959Z,33.47
2019-03-10T22:50:16.030Z,33.43
2019-03-10T22:52:44.571Z,33.46
2019-03-10T22:55:13.937Z,33.48
2019-03-10T22:57:42.351Z,33.48
2019-03-10T23:00:19.624Z,33.50
2019-03-10T23:02:48.014Z,33.53
2019-03-10T23:05:16.547Z,33.50
2019-03-10T23:07:44.925Z,33.54
2019-03-10T23:10:14.518Z,33.56
2019-03-10T23:12:42.892Z,33.61
2019-03-10T23:15:12.718Z,33.63
2019-03-10T23:17:41.135Z,33.67
2019-03-10T23:20:14.322Z,33.61
2019-03-10T23:22:42.703Z,33.64
2019-03-10T23:25:11.121Z,33.68
2019-03-10T23:27:39.502Z,33.64
2019-03-10T23:30:11.425Z,33.69
2019-03-10T23:32:39.818Z,33.65
2019-03-10T23:35:08.404Z,33.51
2019-03-10T23:37:36.788Z,33.41
2019-03-10T23:40:08.712Z,33.31
2019-03-10T23:42:37.100Z,33.21
2019-03-10T23:45:07.869Z,33.34
2019-03-10T23:47:36.256Z,33.24
2019-03-10T23:50:05.929Z,33.13
2019-03-10T23:52:34.319Z,33.33
2019-03-10T23:55:02.744Z,33.31
2019-03-10T23:57:31.202Z,33.28
2019-03-10T23:59:59.632Z,33.03
